Time;durP1;ratioP1;P1;durP2;ratioP2;P2;SDS_P1;SDS_P2;PMS_P1;PMS_P2;Temp;Humidity;BMP_temperature;BMP_pressure;BME280_temperature;BME280_humidity;BME280_pressure;Samples;Min_cycle;Max_cycle;Signal;HPM_P1;HPM_P2
2022/11/09 00:00:32;;;;;;;1999.90;999.90;;;16.00;99.90;;;;;;5099017;28;20166;-68
2022/11/09 00:02:57;;;;;;;1999.90;999.90;;;16.00;99.90;;;;;;5094157;28;20174;-67
2022/11/09 00:05:23;;;;;;;1999.90;999.90;;;15.90;99.90;;;;;;5093229;28;20600;-66
2022/11/09 00:07:48;;;;;;;1999.90;999.90;;;16.00;99.90;;;;;;5092917;28;20184;-66
2022/11/09 00:10:14;;;;;;;1999.90;999.90;;;16.00;99.90;;;;;;5094239;28;20244;-67
2022/11/09 00:12:40;;;;;;;1999.90;999.90;;;15.90;99.90;;;;;;5094762;28;20170;-67
2022/11/09 00:15:06;;;;;;;1999.90;999.90;;;15.80;99.90;;;;;;5096726;28;20280;-67
2022/11/09 00:17:31;;;;;;;1999.90;999.90;;;15.80;99.90;;;;;;5096664;28;20162;-68
2022/11/09 00:19:57;;;;;;;1999.90;999.90;;;15.80;99.90;;;;;;5094869;28;20439;-67
2022/11/09 00:22:22;;;;;;;1999.90;999.90;;;15.80;99.90;;;;;;5092963;28;20398;-67
2022/11/09 00:24:48;;;;;;;1999.90;999.90;;;15.80;99.90;;;;;;5092764;28;20223;-67
2022/11/09 00:27:14;;;;;;;1999.90;999.90;;;15.80;99.90;;;;;;5092731;28;20165;-67
2022/11/09 00:29:39;;;;;;;1999.90;999.90;;;15.80;99.90;;;;;;5092727;28;20182;-67
2022/11/09 00:32:05;;;;;;;1999.90;999.90;;;15.70;99.90;;;;;;5092758;28;20170;-67
2022/11/09 00:34:30;;;;;;;1999.90;999.90;;;15.60;99.90;;;;;;5092682;28;20548;-67
2022/11/09 00:36:56;;;;;;;1999.90;999.90;;;15.70;99.90;;;;;;5092439;28;20217;-67
2022/11/09 00:39:21;;;;;;;1999.90;999.90;;;15.60;99.90;;;;;;5092570;28;20177;-67
2022/11/09 00:41:47;;;;;;;1999.90;999.90;;;15.60;99.90;;;;;;5092664;28;20200;-67
2022/11/09 00:44:12;;;;;;;1999.90;999.90;;;15.60;99.90;;;;;;5092565;28;20654;-67
2022/11/09 00:46:38;;;;;;;1999.90;999.90;;;15.70;99.90;;;;;;5093739;28;20612;-67
2022/11/09 00:49:04;;;;;;;1999.90;999.90;;;15.60;99.90;;;;;;5092463;28;20188;-67
2022/11/09 00:51:29;;;;;;;1999.90;999.90;;;15.60;99.90;;;;;;5092411;28;20744;-66
2022/11/09 00:53:56;;;;;;;1999.90;999.90;;;15.60;99.90;;;;;;5092320;28;20251;-66
2022/11/09 00:56:21;;;;;;;1999.90;999.90;;;15.60;99.90;;;;;;5092363;28;20169;-66
2022/11/09 00:58:51;;;;;;;1999.90;999.90;;;15.60;99.90;;;;;;5092180;28;20493;-66
2022/11/09 01:01:16;;;;;;;1999.90;999.90;;;15.60;99.90;;;;;;5092297;28;20178;-66
2022/11/09 01:03:45;;;;;;;1999.90;999.90;;;15.60;99.90;;;;;;5092260;28;20861;-66
2022/11/09 01:06:19;;;;;;;1999.90;999.90;;;15.60;99.90;;;;;;5092182;28;20251;-67
2022/11/09 01:08:46;;;;;;;1999.90;999.90;;;15.70;99.90;;;;;;5092132;28;20444;-67
2022/11/09 01:11:12;;;;;;;1999.90;999.90;;;15.60;99.90;;;;;;5092131;28;20457;-66
2022/11/09 01:13:39;;;;;;;1999.90;999.90;;;15.60;99.90;;;;;;5092123;28;20420;-66
2022/11/09 01:16:08;;;;;;;1999.90;999.90;;;15.60;99.90;;;;;;5092055;28;20419;-66
2022/11/09 01:18:34;;;;;;;1999.90;999.90;;;15.60;99.90;;;;;;5091948;28;20417;-66
2022/11/09 01:21:01;;;;;;;1999.90;999.90;;;15.60;99.90;;;;;;5091838;28;20404;-66
2022/11/09 01:23:27;;;;;;;1999.90;999.90;;;15.60;99.90;;;;;;5091880;28;20502;-68
2022/11/09 01:25:59;;;;;;;1999.90;999.90;;;15.60;99.90;;;;;;5091993;28;20435;-67
2022/11/09 01:28:25;;;;;;;1999.90;999.90;;;15.60;99.90;;;;;;5091890;28;20228;-66
2022/11/09 01:30:51;;;;;;;1999.90;999.90;;;15.50;99.90;;;;;;5091849;28;20492;-67
2022/11/09 01:33:17;;;;;;;1999.90;999.90;;;15.50;99.90;;;;;;5091800;28;20321;-67
2022/11/09 01:35:43;;;;;;;1999.90;999.90;;;15.50;99.90;;;;;;5091897;28;20404;-67
2022/11/09 01:38:08;;;;;;;1999.90;999.90;;;15.50;99.90;;;;;;5091786;28;20402;-67
2022/11/09 01:40:37;;;;;;;1999.90;999.90;;;15.50;99.90;;;;;;5095271;28;20183;-67
2022/11/09 01:43:20;;;;;;;1999.90;999.90;;;15.50;99.90;;;;;;5092150;28;20413;-67
2022/11/09 01:46:10;;;;;;;1999.90;999.90;;;15.50;99.90;;;;;;5098436;28;20906;-67
2022/11/09 01:48:39;;;;;;;1999.90;999.90;;;15.50;99.90;;;;;;5096810;28;20404;-67
2022/11/09 01:51:18;;;;;;;1999.90;999.90;;;15.50;99.90;;;;;;5096641;28;20455;-66
2022/11/09 01:53:48;;;;;;;1999.90;999.90;;;15.50;99.90;;;;;;5097041;28;20800;-67
2022/11/09 01:56:15;;;;;;;1999.90;999.90;;;15.60;99.90;;;;;;5097594;28;20489;-67
2022/11/09 01:58:53;;;;;;;1999.90;999.90;;;15.60;99.90;;;;;;5097935;28;20400;-67
2022/11/09 02:01:19;;;;;;;1999.90;999.90;;;15.50;99.90;;;;;;5096787;28;20411;-67
2022/11/09 02:03:53;;;;;;;1999.90;999.90;;;15.60;99.90;;;;;;5096842;28;20910;-67
2022/11/09 02:06:22;;;;;;;1999.90;999.90;;;15.50;99.90;;;;;;5096497;28;20409;-67
2022/11/09 02:08:49;;;;;;;1999.90;999.90;;;15.50;99.90;;;;;;5078954;28;20421;-66
2022/11/09 02:11:18;;;;;;;1999.90;999.90;;;15.40;99.90;;;;;;5097967;28;20981;-68
2022/11/09 02:13:48;;;;;;;1999.90;999.90;;;15.40;99.90;;;;;;5098132;28;20918;-67
2022/11/09 02:16:14;;;;;;;1999.90;999.90;;;15.40;99.90;;;;;;5097910;28;20405;-67
2022/11/09 02:18:57;;;;;;;1999.90;999.90;;;15.40;99.90;;;;;;5097163;28;20408;-67
2022/11/09 02:21:25;;;;;;;1999.90;999.90;;;15.40;99.90;;;;;;5097428;28;20837;-66
2022/11/09 02:23:51;;;;;;;1999.90;999.90;;;15.30;99.90;;;;;;5097294;28;21089;-67
2022/11/09 02:26:25;;;;;;;1999.90;999.90;;;15.30;99.90;;;;;;5097600;28;20455;-67
2022/11/09 02:28:54;;;;;;;1999.90;999.90;;;15.30;99.90;;;;;;5097503;28;20409;-67
2022/11/09 02:31:21;;;;;;;1999.90;999.90;;;15.20;99.90;;;;;;5096791;28;20453;-67
2022/11/09 02:33:50;;;;;;;1999.90;999.90;;;15.20;99.90;;;;;;5099671;28;20427;-66
2022/11/09 02:36:16;;;;;;;1999.90;999.90;;;15.20;99.90;;;;;;5101097;28;20822;-66
2022/11/09 02:38:41;;;;;;;1999.90;999.90;;;15.20;99.90;;;;;;5100604;28;20442;-67
2022/11/09 02:41:08;;;;;;;1999.90;999.90;;;15.20;99.90;;;;;;5100508;28;20439;-67
2022/11/09 02:43:35;;;;;;;1999.90;999.90;;;15.20;99.90;;;;;;5100448;28;20170;-67
2022/11/09 02:46:01;;;;;;;1999.90;999.90;;;15.20;99.90;;;;;;5100627;28;20408;-66
2022/11/09 02:48:27;;;;;;;1999.90;999.90;;;15.20;99.90;;;;;;5100164;28;20435;-67
2022/11/09 02:50:53;;;;;;;1999.90;999.90;;;15.20;99.90;;;;;;5100767;28;20990;-66
2022/11/09 02:53:18;;;;;;;1999.90;999.90;;;15.20;99.90;;;;;;5100749;28;20174;-67
2022/11/09 02:55:44;;;;;;;1999.90;999.90;;;15.20;99.90;;;;;;5100572;28;20173;-67
2022/11/09 02:58:09;;;;;;;1999.90;999.90;;;15.10;99.90;;;;;;5099701;28;20245;-66
2022/11/09 03:00:35;;;;;;;1999.90;999.90;;;15.10;99.90;;;;;;5100524;28;20188;-66
2022/11/09 03:03:01;;;;;;;1999.90;999.90;;;15.10;99.90;;;;;;5099858;28;20186;-67
2022/11/09 03:05:26;;;;;;;1999.90;999.90;;;15.10;99.90;;;;;;5099322;28;20676;-67
2022/11/09 03:07:52;;;;;;;1999.90;999.90;;;15.10;99.90;;;;;;5097550;28;20199;-66
2022/11/09 03:10:17;;;;;;;1999.90;999.90;;;15.20;99.90;;;;;;5096663;28;20196;-66
2022/11/09 03:12:43;;;;;;;1999.90;999.90;;;15.10;99.90;;;;;;5097508;28;20162;-66
2022/11/09 03:15:09;;;;;;;1999.90;999.90;;;15.20;99.90;;;;;;5095241;28;20233;-68
2022/11/09 03:17:35;;;;;;;1999.90;999.90;;;15.20;99.90;;;;;;5096553;28;20530;-67
2022/11/09 03:20:01;;;;;;;1999.90;999.90;;;15.10;99.90;;;;;;5098116;28;20404;-67
2022/11/09 03:22:26;;;;;;;1999.90;999.90;;;15.20;99.90;;;;;;5096337;28;20411;-67
2022/11/09 03:24:52;;;;;;;1999.90;999.90;;;15.20;99.90;;;;;;5096770;28;20213;-67
2022/11/09 03:27:18;;;;;;;1999.90;999.90;;;15.20;99.90;;;;;;5096099;28;20207;-67
2022/11/09 03:29:43;;;;;;;1999.90;999.90;;;15.20;99.90;;;;;;5097004;28;20173;-67
2022/11/09 03:32:09;;;;;;;1999.90;999.90;;;15.20;99.90;;;;;;5095966;28;20228;-67
2022/11/09 03:34:34;;;;;;;1999.90;999.90;;;15.20;99.90;;;;;;5096012;28;20181;-67
2022/11/09 03:37:00;;;;;;;1999.90;999.90;;;15.20;99.90;;;;;;5095708;28;20167;-67
2022/11/09 03:39:26;;;;;;;1999.90;999.90;;;15.20;99.90;;;;;;5095158;28;20222;-67
2022/11/09 03:41:51;;;;;;;1999.90;999.90;;;15.20;99.90;;;;;;5095242;28;20170;-67
2022/11/09 03:44:18;;;;;;;1999.90;999.90;;;15.20;99.90;;;;;;5094852;28;20283;-67
2022/11/09 03:46:44;;;;;;;1999.90;999.90;;;15.20;99.90;;;;;;5095026;28;20175;-67
2022/11/09 03:49:10;;;;;;;1999.90;999.90;;;15.10;99.90;;;;;;5095190;28;20475;-67
2022/11/09 03:51:36;;;;;;;1999.90;999.90;;;15.10;99.90;;;;;;5096654;28;20595;-68
2022/11/09 03:54:01;;;;;;;1999.90;999.90;;;15.20;99.90;;;;;;5124407;22;20514;-70
2022/11/09 03:56:27;;;;;;;1999.90;999.90;;;15.10;99.90;;;;;;5073654;28;20657;-70
2022/11/09 03:58:53;;;;;;;1999.90;999.90;;;15.10;99.90;;;;;;5073673;28;20166;-70
2022/11/09 04:01:18;;;;;;;1999.90;999.90;;;15.00;99.90;;;;;;5073575;28;20674;-70
2022/11/09 04:03:44;;;;;;;1999.90;999.90;;;15.10;99.90;;;;;;5081770;28;20541;-70
2022/11/09 04:06:09;;;;;;;1999.90;999.90;;;15.10;99.90;;;;;;5093706;28;20258;-70
2022/11/09 04:08:35;;;;;;;1999.90;999.90;;;15.10;99.90;;;;;;5093563;28;20659;-70
2022/11/09 04:11:00;;;;;;;1999.90;999.90;;;15.20;99.90;;;;;;5093576;28;20284;-70
2022/11/09 04:13:26;;;;;;;1999.90;999.90;;;15.20;99.90;;;;;;5093192;28;20197;-70
2022/11/09 04:15:52;;;;;;;1999.90;999.90;;;15.20;99.90;;;;;;5093147;28;20203;-70
2022/11/09 04:18:17;;;;;;;1999.90;999.90;;;15.20;99.90;;;;;;5074913;28;20541;-70
2022/11/09 04:20:43;;;;;;;1999.90;999.90;;;15.20;99.90;;;;;;5093245;28;20194;-70
2022/11/09 04:23:11;;;;;;;1999.90;999.90;;;15.30;99.90;;;;;;5093198;28;20186;-70
2022/11/09 04:25:38;;;;;;;1999.90;999.90;;;15.30;99.90;;;;;;5093088;28;20263;-70
2022/11/09 04:28:05;;;;;;;1999.90;999.90;;;15.30;99.90;;;;;;5092791;28;20411;-70
2022/11/09 04:30:34;;;;;;;1999.90;999.90;;;15.30;99.90;;;;;;5092956;28;20445;-70
2022/11/09 04:33:00;;;;;;;1999.90;999.90;;;15.30;99.90;;;;;;5092729;28;20897;-70
2022/11/09 04:35:27;;;;;;;1999.90;999.90;;;15.40;99.90;;;;;;5092920;28;20399;-70
2022/11/09 04:38:05;;;;;;;1999.90;999.90;;;15.40;99.90;;;;;;5092573;28;20408;-70
2022/11/09 04:40:33;;;;;;;1999.90;999.90;;;15.30;99.90;;;;;;5092732;28;20444;-70
2022/11/09 04:43:00;;;;;;;1999.90;999.90;;;15.40;99.90;;;;;;5092557;28;20918;-70
2022/11/09 04:45:26;;;;;;;1999.90;999.90;;;15.30;99.90;;;;;;5092816;28;20410;-71
2022/11/09 04:47:59;;;;;;;1999.90;999.90;;;15.20;99.90;;;;;;5092345;28;20408;-70
2022/11/09 04:50:25;;;;;;;1999.90;999.90;;;15.30;99.90;;;;;;5092583;28;20453;-70
2022/11/09 04:52:51;;;;;;;1999.90;999.90;;;15.30;99.90;;;;;;5092399;28;20430;-70
2022/11/09 04:55:16;;;;;;;1999.90;999.90;;;15.30;99.90;;;;;;5091889;28;20432;-70
2022/11/09 04:57:42;;;;;;;1999.90;999.90;;;15.30;99.90;;;;;;5092091;28;20697;-70
2022/11/09 05:00:08;;;;;;;1999.90;999.90;;;15.30;99.90;;;;;;5092414;28;20292;-70
2022/11/09 05:02:34;;;;;;;1999.90;999.90;;;15.30;99.90;;;;;;5092390;28;20216;-70
2022/11/09 05:04:59;;;;;;;1999.90;999.90;;;15.30;99.90;;;;;;5092237;28;20510;-70
2022/11/09 05:07:25;;;;;;;1999.90;999.90;;;15.40;99.90;;;;;;5092232;28;20168;-70
2022/11/09 05:09:50;;;;;;;1999.90;999.90;;;15.40;99.90;;;;;;5092430;28;20591;-70
2022/11/09 05:12:16;;;;;;;1999.90;999.90;;;15.30;99.90;;;;;;5092209;28;20163;-70
2022/11/09 05:14:41;;;;;;;1999.90;999.90;;;15.30;99.90;;;;;;5092159;28;20193;-70
2022/11/09 05:17:07;;;;;;;1999.90;999.90;;;15.30;99.90;;;;;;5091981;28;20174;-70
2022/11/09 05:19:34;;;;;;;1999.90;999.90;;;15.10;99.90;;;;;;5092155;28;20641;-70
2022/11/09 05:24:43;;;;;;;1999.90;999.90;;;15.10;99.90;;;;;;5092018;28;20415;-70
2022/11/09 05:27:09;;;;;;;1999.90;999.90;;;15.20;99.90;;;;;;5091826;28;20790;-70
2022/11/09 05:29:35;;;;;;;1999.90;999.90;;;15.00;99.90;;;;;;5091884;28;20219;-70
2022/11/09 05:32:00;;;;;;;1999.90;999.90;;;15.00;99.90;;;;;;5092142;28;20242;-70
2022/11/09 05:34:26;;;;;;;1999.90;999.90;;;14.80;99.90;;;;;;5091924;28;20643;-70
2022/11/09 05:36:51;;;;;;;1999.90;999.90;;;14.60;99.90;;;;;;5091768;28;20242;-70
2022/11/09 05:39:17;;;;;;;1999.90;999.90;;;14.30;99.90;;;;;;5091763;28;20162;-70
2022/11/09 05:41:42;;;;;;;1999.90;999.90;;;14.00;99.90;;;;;;5092162;28;20174;-70
2022/11/09 05:44:08;;;;;;;1999.90;999.90;;;13.80;99.90;;;;;;5091846;28;20699;-69
2022/11/09 05:46:33;;;;;;;1999.90;999.90;;;13.50;99.90;;;;;;5091800;28;20178;-69
2022/11/09 05:48:59;;;;;;;1999.90;999.90;;;13.30;99.90;;;;;;5091695;28;20171;-69
2022/11/09 05:51:25;;;;;;;1999.90;999.90;;;13.20;99.90;;;;;;5091797;28;20194;-69
2022/11/09 05:53:50;;;;;;;1999.90;999.90;;;13.10;99.90;;;;;;5091569;28;20572;-68
2022/11/09 05:56:16;;;;;;;1999.90;999.90;;;13.10;99.90;;;;;;5091706;28;20199;-69
2022/11/09 05:58:42;;;;;;;1999.90;999.90;;;13.00;99.90;;;;;;5091586;28;20164;-68
2022/11/09 06:01:17;;;;;;;1999.90;999.90;;;13.00;99.90;;;;;;5092109;28;20678;-68
2022/11/09 06:03:43;;;;;;;1999.90;999.90;;;12.90;99.90;;;;;;5091635;28;20427;-69
2022/11/09 06:06:13;;;;;;;1999.90;999.90;;;12.90;99.90;;;;;;5091638;28;20415;-68
2022/11/09 06:08:39;;;;;;;1999.90;999.90;;;12.90;99.90;;;;;;5094062;28;20463;-68
2022/11/09 06:11:07;;;;;;;1999.90;999.90;;;12.90;99.90;;;;;;5095506;28;20493;-68
2022/11/09 06:13:33;;;;;;;1999.90;999.90;;;12.90;99.90;;;;;;5095464;28;20198;-69
2022/11/09 06:16:01;;;;;;;1999.90;999.90;;;12.90;99.90;;;;;;5095488;28;20441;-69
2022/11/09 06:18:28;;;;;;;1999.90;999.90;;;12.90;99.90;;;;;;5095262;28;20806;-69
2022/11/09 06:20:56;;;;;;;1999.90;999.90;;;12.80;99.90;;;;;;5095335;28;20835;-68
2022/11/09 06:23:24;;;;;;;1999.90;999.90;;;12.80;99.90;;;;;;5095381;28;20462;-68
2022/11/09 06:25:51;;;;;;;1999.90;999.90;;;12.80;99.90;;;;;;5095151;28;20409;-69
2022/11/09 06:28:17;;;;;;;1999.90;999.90;;;12.80;99.90;;;;;;5095120;28;20405;-69
2022/11/09 06:30:43;;;;;;;1999.90;999.90;;;12.70;99.90;;;;;;5095134;28;20948;-69
2022/11/09 06:33:08;;;;;;;1999.90;999.90;;;12.70;99.90;;;;;;5095079;28;20188;-69
2022/11/09 06:35:34;;;;;;;1999.90;999.90;;;12.80;99.90;;;;;;5094983;28;20529;-69
2022/11/09 06:38:00;;;;;;;1999.90;999.90;;;12.70;99.90;;;;;;5094789;28;20166;-69
2022/11/09 06:40:26;;;;;;;1999.90;999.90;;;12.70;99.90;;;;;;5095027;28;20654;-70
2022/11/09 06:42:54;;;;;;;1999.90;999.90;;;12.70;99.90;;;;;;5095004;28;20772;-68
2022/11/09 06:45:20;;;;;;;1999.90;999.90;;;12.80;99.90;;;;;;5094856;28;20401;-68
2022/11/09 06:47:45;;;;;;;1999.90;999.90;;;12.80;99.90;;;;;;5094625;28;20465;-68
2022/11/09 06:50:11;;;;;;;1999.90;999.90;;;12.80;99.90;;;;;;5094742;28;20182;-69
2022/11/09 06:52:36;;;;;;;1999.90;999.90;;;12.80;99.90;;;;;;5094671;28;20760;-69
2022/11/09 06:55:02;;;;;;;1999.90;999.90;;;12.80;99.90;;;;;;5094627;28;20194;-69
2022/11/09 06:57:30;;;;;;;1999.90;999.90;;;12.80;99.90;;;;;;5094467;28;20517;-69
2022/11/09 06:59:55;;;;;;;1999.90;999.90;;;12.80;99.90;;;;;;5094553;28;20168;-69
2022/11/09 07:02:21;;;;;;;1999.90;999.90;;;12.80;99.90;;;;;;5094552;28;20402;-70
2022/11/09 07:04:50;;;;;;;1999.90;999.90;;;12.80;99.90;;;;;;5094466;28;20261;-70
2022/11/09 07:07:16;;;;;;;1999.90;999.90;;;12.80;99.90;;;;;;5094349;28;20176;-69
2022/11/09 07:09:41;;;;;;;1999.90;999.90;;;12.80;99.90;;;;;;5094525;28;20455;-70
2022/11/09 07:12:08;;;;;;;1999.90;999.90;;;12.80;99.90;;;;;;5094462;28;20214;-70
2022/11/09 07:14:33;;;;;;;1999.90;999.90;;;12.90;99.90;;;;;;5094371;28;20663;-69
2022/11/09 07:16:59;;;;;;;1999.90;999.90;;;12.90;99.90;;;;;;5094156;28;20420;-70
2022/11/09 07:19:25;;;;;;;1999.90;999.90;;;12.80;99.90;;;;;;5093938;28;20168;-69
2022/11/09 07:21:50;;;;;;;1999.90;999.90;;;12.80;99.90;;;;;;5094183;28;20182;-70
2022/11/09 07:24:16;;;;;;;1999.90;999.90;;;12.80;99.90;;;;;;5094154;28;20615;-69
2022/11/09 07:26:41;;;;;;;1999.90;999.90;;;12.90;99.90;;;;;;5093846;28;20193;-70
2022/11/09 07:29:07;;;;;;;1999.90;999.90;;;12.80;99.90;;;;;;5093994;28;20225;-69
2022/11/09 07:31:33;;;;;;;1999.90;999.90;;;12.80;99.90;;;;;;5093895;28;20240;-69
2022/11/09 07:34:03;;;;;;;1999.90;999.90;;;12.90;99.90;;;;;;5093877;28;20188;-69
2022/11/09 07:36:30;;;;;;;1999.90;999.90;;;12.80;99.90;;;;;;5093750;28;20213;-69
2022/11/09 07:38:56;;;;;;;1999.90;999.90;;;12.90;99.90;;;;;;5093624;28;20406;-70
2022/11/09 07:41:22;;;;;;;1999.90;999.90;;;12.90;99.90;;;;;;5093825;28;20422;-70
2022/11/09 07:43:47;;;;;;;1999.90;999.90;;;13.00;99.90;;;;;;5093826;28;20436;-69
2022/11/09 07:46:13;;;;;;;1999.90;999.90;;;12.90;99.90;;;;;;5093764;28;20651;-69
2022/11/09 07:48:38;;;;;;;1999.90;999.90;;;13.10;99.90;;;;;;5093563;28;20248;-70
2022/11/09 07:51:04;;;;;;;1999.90;999.90;;;13.10;99.90;;;;;;5093571;28;20195;-70
2022/11/09 07:53:30;;;;;;;1999.90;999.90;;;13.20;99.90;;;;;;5093446;28;20261;-69
2022/11/09 07:55:57;;;;;;;1999.90;999.90;;;13.20;99.90;;;;;;5110854;28;20182;-69
2022/11/09 07:58:23;;;;;;;1999.90;999.90;;;13.30;99.90;;;;;;5113734;28;20633;-69
2022/11/09 08:00:49;;;;;;;1999.90;999.90;;;13.40;99.90;;;;;;5113794;28;20413;-69
2022/11/09 08:03:18;;;;;;;1999.90;999.90;;;13.40;99.90;;;;;;5113887;28;20437;-69
2022/11/09 08:05:44;;;;;;;1999.90;999.90;;;13.50;99.90;;;;;;5113628;28;20212;-69
2022/11/09 08:08:11;;;;;;;1999.90;999.90;;;13.50;99.90;;;;;;5113470;28;20436;-69
2022/11/09 08:10:37;;;;;;;1999.90;999.90;;;13.60;99.90;;;;;;5113476;28;20539;-68
2022/11/09 08:13:07;;;;;;;1999.90;999.90;;;13.60;99.90;;;;;;5113609;28;20803;-69
2022/11/09 08:15:34;;;;;;;1999.90;999.90;;;13.70;99.90;;;;;;5113604;28;20418;-69
2022/11/09 08:18:20;;;;;;;1999.90;999.90;;;13.70;99.90;;;;;;5113294;28;20413;-69
2022/11/09 08:20:46;;;;;;;1999.90;999.90;;;13.70;99.90;;;;;;5113231;28;20414;-70
2022/11/09 08:23:13;;;;;;;1999.90;999.90;;;13.70;99.90;;;;;;5113410;28;20427;-69
2022/11/09 08:25:39;;;;;;;1999.90;999.90;;;13.80;99.90;;;;;;5113275;28;20656;-69
2022/11/09 08:28:05;;;;;;;1999.90;999.90;;;13.90;99.90;;;;;;5113000;28;20408;-70
2022/11/09 08:30:31;;;;;;;1999.90;999.90;;;14.00;99.90;;;;;;5112579;28;20464;-69
2022/11/09 08:32:58;;;;;;;1999.90;999.90;;;14.00;99.90;;;;;;5113200;28;20168;-69
2022/11/09 08:35:24;;;;;;;1999.90;999.90;;;14.00;99.90;;;;;;5113319;28;20403;-70
2022/11/09 08:37:52;;;;;;;1999.90;999.90;;;14.10;99.90;;;;;;5112932;28;20405;-69
2022/11/09 08:40:21;;;;;;;1999.90;999.90;;;14.20;99.90;;;;;;5113075;28;20436;-69
2022/11/09 08:42:46;;;;;;;1999.90;999.90;;;14.20;99.90;;;;;;5113017;28;20944;-69
2022/11/09 08:45:13;;;;;;;1999.90;999.90;;;14.20;99.90;;;;;;5112985;28;20459;-69
2022/11/09 08:47:39;;;;;;;1999.90;999.90;;;14.20;99.90;;;;;;5112704;28;20201;-69
2022/11/09 08:50:06;;;;;;;1999.90;999.90;;;14.30;99.90;;;;;;5112914;28;20440;-69
2022/11/09 08:52:32;;;;;;;1999.90;999.90;;;14.40;99.90;;;;;;5113478;28;20925;-69
2022/11/09 08:54:58;;;;;;;1999.90;999.90;;;14.40;99.90;;;;;;5113036;28;20948;-69
2022/11/09 08:57:23;;;;;;;1999.90;999.90;;;14.40;99.90;;;;;;5112816;28;20718;-70
2022/11/09 08:59:49;;;;;;;1999.90;999.90;;;14.40;99.90;;;;;;5112895;28;20177;-68
2022/11/09 09:02:15;;;;;;;1999.90;999.90;;;14.50;99.90;;;;;;5112841;28;20218;-69
2022/11/09 09:04:41;;;;;;;1999.90;999.90;;;14.50;99.90;;;;;;5112656;28;20206;-69
2022/11/09 09:07:07;;;;;;;1999.90;999.90;;;14.50;99.90;;;;;;5112813;28;20165;-69
2022/11/09 09:09:33;;;;;;;1999.90;999.90;;;14.50;99.90;;;;;;5112662;28;20932;-69
2022/11/09 09:11:59;;;;;;;1999.90;999.90;;;14.60;99.90;;;;;;5112693;28;20444;-69
2022/11/09 09:14:25;;;;;;;1999.90;999.90;;;14.60;99.90;;;;;;5112921;28;20427;-69
2022/11/09 09:16:50;;;;;;;1999.90;999.90;;;14.60;99.90;;;;;;5112594;28;20897;-69
2022/11/09 09:19:16;;;;;;;1999.90;999.90;;;14.60;99.90;;;;;;5112677;28;20198;-69
2022/11/09 09:21:42;;;;;;;1999.90;999.90;;;14.60;99.90;;;;;;5112942;28;20176;-69
2022/11/09 09:24:08;;;;;;;1999.90;999.90;;;14.60;99.90;;;;;;5113285;28;20267;-69
2022/11/09 09:26:34;;;;;;;1999.90;999.90;;;14.60;99.90;;;;;;5112916;28;20399;-70
2022/11/09 09:28:59;;;;;;;1999.90;999.90;;;14.60;99.90;;;;;;5113114;28;20167;-69
2022/11/09 09:31:25;;;;;;;1999.90;999.90;;;14.60;99.90;;;;;;5113087;28;20196;-69
2022/11/09 09:33:51;;;;;;;1999.90;999.90;;;14.60;99.90;;;;;;5112864;28;20594;-70
2022/11/09 09:36:18;;;;;;;1999.90;999.90;;;14.60;99.90;;;;;;5113345;28;20183;-71
2022/11/09 09:38:44;;;;;;;1999.90;999.90;;;14.60;99.90;;;;;;5112487;28;20404;-69
2022/11/09 09:41:33;;;;;;;1999.90;999.90;;;14.70;99.90;;;;;;5113197;28;20400;-70
2022/11/09 09:44:20;;;;;;;1999.90;999.90;;;14.70;99.90;;;;;;5116773;28;20438;-70
2022/11/09 09:46:48;;;;;;;1999.90;999.90;;;14.70;99.90;;;;;;5116793;28;20398;-70
2022/11/09 09:49:26;;;;;;;1999.90;999.90;;;14.70;99.90;;;;;;5117018;28;20840;-69
2022/11/09 09:51:58;;;;;;;1999.90;999.90;;;14.70;99.90;;;;;;5116839;28;20453;-70
2022/11/09 09:54:29;;;;;;;1999.90;999.90;;;14.80;99.90;;;;;;5147500;22;20541;-67
2022/11/09 09:56:58;;;;;;;1999.90;999.90;;;14.70;99.90;;;;;;5095656;28;20434;-65
2022/11/09 09:59:56;;;;;;;1999.90;999.90;;;14.80;99.90;;;;;;5095722;28;20420;-66
2022/11/09 10:02:30;;;;;;;1999.90;999.90;;;14.80;99.90;;;;;;5083707;28;20854;-66
2022/11/09 10:05:01;;;;;;;1999.90;999.90;;;14.80;99.90;;;;;;5095591;28;20413;-66
2022/11/09 10:07:44;;;;;;;1999.90;999.90;;;14.90;99.90;;;;;;5095522;28;20431;-66
2022/11/09 10:10:44;;;;;;;1999.90;999.90;;;15.00;99.90;;;;;;5095508;28;20432;-66
2022/11/09 10:13:25;;;;;;;1999.90;999.90;;;15.10;99.90;;;;;;5095665;28;20415;-66
2022/11/09 10:16:08;;;;;;;1999.90;999.90;;;15.20;99.90;;;;;;5095803;28;20394;-66
2022/11/09 10:18:37;;;;;;;1999.90;999.90;;;15.20;99.90;;;;;;5095114;28;20376;-66
2022/11/09 10:21:28;;;;;;;1999.90;999.90;;;15.30;99.90;;;;;;5095433;28;20414;-67
2022/11/09 10:24:12;;;;;;;1999.90;999.90;;;15.50;99.90;;;;;;5095263;28;20993;-66
2022/11/09 10:26:57;;;;;;;1999.90;999.90;;;15.50;99.90;;;;;;5095070;28;20425;-66
2022/11/09 10:29:26;;;;;;;1999.90;999.90;;;15.60;99.90;;;;;;5095325;28;20434;-66
2022/11/09 10:32:04;;;;;;;1999.90;999.90;;;15.60;99.90;;;;;;5095265;28;20828;-67
2022/11/09 10:34:39;;;;;;;1999.90;999.90;;;15.70;99.90;;;;;;5095015;28;20475;-66
2022/11/09 10:37:20;;;;;;;1999.90;999.90;;;15.80;99.90;;;;;;5094763;28;20402;-66
2022/11/09 10:39:55;;;;;;;1999.90;999.90;;;15.90;99.90;;;;;;5095072;28;20833;-66
2022/11/09 10:42:21;;;;;;;1999.90;999.90;;;15.80;99.90;;;;;;5095000;28;20408;-66
2022/11/09 10:44:46;;;;;;;1999.90;999.90;;;15.90;99.90;;;;;;5094890;28;20415;-66
2022/11/09 10:47:15;;;;;;;1999.90;999.90;;;16.00;99.90;;;;;;5094600;28;20659;-66
2022/11/09 10:49:41;;;;;;;1999.90;999.90;;;16.10;99.90;;;;;;5094708;28;20174;-66
2022/11/09 10:52:28;;;;;;;1999.90;999.90;;;16.10;99.90;;;;;;5094706;28;20448;-66
2022/11/09 10:55:16;;;;;;;1999.90;999.90;;;16.10;99.90;;;;;;5093799;28;20515;-66
2022/11/09 10:58:01;;;;;;;1999.90;999.90;;;16.10;99.90;;;;;;5093012;28;20461;-67
2022/11/09 11:00:27;;;;;;;1999.90;999.90;;;16.00;99.90;;;;;;5094698;28;20487;-67
2022/11/09 11:02:53;;;;;;;1999.90;999.90;;;16.10;99.90;;;;;;5093650;28;20801;-67
2022/11/09 11:05:20;;;;;;;1999.90;999.90;;;16.30;99.90;;;;;;5090835;28;20521;-67
2022/11/09 11:07:46;;;;;;;1999.90;999.90;;;16.40;99.90;;;;;;5094218;28;20797;-69
2022/11/09 11:10:14;;;;;;;1999.90;999.90;;;16.40;99.90;;;;;;5097783;28;20537;-68
2022/11/09 11:12:41;;;;;;;1999.90;999.90;;;16.50;99.90;;;;;;5097154;28;20224;-68
2022/11/09 11:15:33;;;;;;;1999.90;999.90;;;16.60;99.90;;;;;;5095194;28;20424;-70
2022/11/09 11:18:03;;;;;;;1999.90;999.90;;;16.70;99.90;;;;;;5093563;28;20404;-70
2022/11/09 11:20:32;;;;;;;1999.90;999.90;;;16.70;99.90;;;;;;5075186;28;20422;-66
2022/11/09 11:23:16;;;;;;;1999.90;999.90;;;16.80;99.90;;;;;;5093671;28;20505;-66
2022/11/09 11:25:54;;;;;;;1999.90;999.90;;;17.10;99.90;;;;;;5093988;28;20413;-66
2022/11/09 11:28:22;;;;;;;1999.90;999.90;;;17.30;99.90;;;;;;5093264;28;20421;-66
2022/11/09 11:30:48;;;;;;;1999.90;999.90;;;17.60;99.90;;;;;;5093675;28;20458;-66
2022/11/09 11:33:17;;;;;;;1999.90;999.90;;;17.70;99.90;;;;;;5093176;28;20841;-66
2022/11/09 11:36:06;;;;;;;1999.90;999.90;;;17.70;99.90;;;;;;5093466;28;20611;-66
2022/11/09 11:38:55;;;;;;;1999.90;999.90;;;17.60;99.90;;;;;;5093322;28;20404;-66
2022/11/09 11:41:44;;;;;;;1999.90;999.90;;;17.60;99.90;;;;;;5092393;28;20412;-66
2022/11/09 11:44:28;;;;;;;1999.90;999.90;;;17.80;99.90;;;;;;5093409;28;20435;-66
2022/11/09 11:46:54;;;;;;;1999.90;999.90;;;17.90;99.90;;;;;;5092013;28;20410;-66
2022/11/09 11:49:28;;;;;;;1999.90;999.90;;;18.00;99.90;;;;;;5092051;28;20495;-66
2022/11/09 11:52:17;;;;;;;1999.90;999.90;;;18.00;99.90;;;;;;5092202;28;20208;-66
2022/11/09 11:55:02;;;;;;;1999.90;999.90;;;18.00;99.90;;;;;;5093138;28;20455;-66
2022/11/09 11:57:55;;;;;;;1999.90;999.90;;;17.90;99.90;;;;;;5091760;28;20408;-66
2022/11/09 12:00:21;;;;;;;1999.90;999.90;;;18.00;99.90;;;;;;5092528;28;20406;-66
2022/11/09 12:03:05;;;;;;;1999.90;999.90;;;18.10;99.90;;;;;;5092976;28;20420;-66
2022/11/09 12:05:47;;;;;;;1999.90;999.90;;;18.30;99.90;;;;;;5092943;28;20414;-66
2022/11/09 12:08:18;;;;;;;1999.90;999.90;;;18.30;99.90;;;;;;5092729;28;20471;-66